createdAt,value
2023-01-08T00:02:14.334Z,50.92
2023-01-08T00:05:13.278Z,50.81
2023-01-08T00:07:55.803Z,51.09
2023-01-08T00:10:22.841Z,50.79
2023-01-08T00:12:49.926Z,50.72
2023-01-08T00:15:28.039Z,50.75
2023-01-08T00:17:55.039Z,51.10
2023-01-08T00:20:25.035Z,51.00
2023-01-08T00:23:19.829Z,50.92
2023-01-08T00:25:47.285Z,51.02
2023-01-08T00:28:15.386Z,50.98
2023-01-08T00:30:42.909Z,51.08
2023-01-08T00:33:10.970Z,51.78
2023-01-08T00:35:39.456Z,51.70
2023-01-08T00:38:10.301Z,51.35
2023-01-08T00:40:40.650Z,51.34
2023-01-08T00:43:08.259Z,50.92
2023-01-08T00:45:35.799Z,50.83
2023-01-08T00:48:05.583Z,50.93
2023-01-08T00:50:35.700Z,50.99
2023-01-08T00:53:06.841Z,50.50
2023-01-08T00:55:34.309Z,50.75
2023-01-08T00:58:01.245Z,50.56
2023-01-08T01:00:30.997Z,50.26
2023-01-08T01:03:00.903Z,50.41
2023-01-08T01:05:27.854Z,50.40
2023-01-08T01:08:07.135Z,50.25
2023-01-08T01:10:40.371Z,49.96
2023-01-08T01:13:29.499Z,50.07
2023-01-08T01:16:28.159Z,49.94
2023-01-08T01:18:58.283Z,49.79
2023-01-08T01:21:35.163Z,49.84
2023-01-08T01:24:07.232Z,49.67
2023-01-08T01:26:36.714Z,49.57
2023-01-08T01:29:06.764Z,49.58
2023-01-08T01:31:55.661Z,49.66
2023-01-08T01:34:43.908Z,49.61
2023-01-08T01:39:49.246Z,49.74
2023-01-08T01:42:38.265Z,49.46
2023-01-08T01:45:19.503Z,49.64
2023-01-08T01:48:11.510Z,49.39
2023-01-08T01:50:49.749Z,49.46
2023-01-08T01:53:51.502Z,49.42
2023-01-08T01:56:18.678Z,49.43
2023-01-08T01:58:48.443Z,49.53
2023-01-08T02:01:20.100Z,49.34
2023-01-08T02:03:50.127Z,49.65
2023-01-08T02:06:28.535Z,49.45
2023-01-08T02:08:57.432Z,49.65
2023-01-08T02:11:43.017Z,49.99
2023-01-08T02:14:37.971Z,49.84
2023-01-08T02:17:10.874Z,50.01
2023-01-08T02:19:41.391Z,49.85
2023-01-08T02:22:42.358Z,50.12
2023-01-08T02:25:40.721Z,49.80
2023-01-08T02:28:13.317Z,50.17
2023-01-08T02:31:12.380Z,50.08
2023-01-08T02:33:41.177Z,49.77
2023-01-08T02:36:24.086Z,49.93
2023-01-08T02:39:15.316Z,50.11
2023-01-08T02:41:51.461Z,50.21
2023-01-08T02:44:54.087Z,50.24
2023-01-08T02:47:45.057Z,51.91
2023-01-08T02:50:36.891Z,51.75
2023-01-08T02:53:25.701Z,51.68
2023-01-08T02:55:57.897Z,51.77
2023-01-08T02:58:27.949Z,51.97
2023-01-08T03:00:55.264Z,52.07
2023-01-08T03:03:27.386Z,52.31
2023-01-08T03:06:03.189Z,52.52
2023-01-08T03:08:34.390Z,51.82
2023-01-08T03:11:11.251Z,51.62
2023-01-08T03:14:00.570Z,51.54
2023-01-08T03:16:38.364Z,51.89
2023-01-08T03:19:54.950Z,51.35
2023-01-08T03:22:24.179Z,51.56
2023-01-08T03:24:54.879Z,51.93
2023-01-08T03:27:28.311Z,51.99
2023-01-08T03:29:58.577Z,52.11
2023-01-08T03:32:48.381Z,52.58
2023-01-08T03:35:40.484Z,52.44
2023-01-08T03:38:18.905Z,52.40
2023-01-08T03:40:51.890Z,52.34
2023-01-08T03:43:18.993Z,52.34
2023-01-08T03:45:57.429Z,52.50
2023-01-08T03:49:13.381Z,52.71
2023-01-08T03:51:24.997Z,52.25
2023-01-08T03:53:56.835Z,52.73
2023-01-08T03:56:23.750Z,52.42
2023-01-08T04:01:36.209Z,52.80
2023-01-08T04:04:03.360Z,52.51
2023-01-08T04:06:37.137Z,52.35
2023-01-08T04:09:07.549Z,52.50
2023-01-08T04:11:40.744Z,52.97
2023-01-08T04:14:08.529Z,52.97
2023-01-08T04:16:35.615Z,52.85
2023-01-08T04:19:02.600Z,54.22
2023-01-08T04:21:29.714Z,53.08
2023-01-08T04:28:21.352Z,52.92
2023-01-08T04:34:21.555Z,53.27
2023-01-08T04:36:55.908Z,53.89
2023-01-08T04:39:22.978Z,53.85
2023-01-08T04:42:20.938Z,53.59
2023-01-08T04:44:47.976Z,53.23
2023-01-08T04:47:15.954Z,53.61
2023-01-08T04:49:48.925Z,53.97
2023-01-08T04:52:15.908Z,53.41
2023-01-08T04:54:42.944Z,53.60
2023-01-08T04:57:10.854Z,53.30
2023-01-08T04:59:38.041Z,53.43
2023-01-08T05:02:12.504Z,53.37
2023-01-08T05:04:39.615Z,53.62
2023-01-08T05:07:07.975Z,53.55
2023-01-08T05:09:34.962Z,53.20
2023-01-08T05:12:19.705Z,53.93
2023-01-08T05:14:47.732Z,53.50
2023-01-08T05:19:58.818Z,53.69
2023-01-08T05:22:25.844Z,53.72
2023-01-08T05:24:52.833Z,53.60
2023-01-08T05:27:21.199Z,53.66
2023-01-08T05:29:48.218Z,53.90
2023-01-08T05:32:17.057Z,53.98
2023-01-08T05:34:44.940Z,54.55
2023-01-08T05:37:12.236Z,54.50
2023-01-08T05:39:39.267Z,54.88
2023-01-08T05:42:07.275Z,55.00
2023-01-08T05:44:38.424Z,55.25
2023-01-08T05:47:05.471Z,56.27
2023-01-08T05:49:54.386Z,57.32
2023-01-08T05:52:23.173Z,56.34
2023-01-08T05:55:15.325Z,57.49
2023-01-08T05:57:45.743Z,56.46
2023-01-08T06:00:15.856Z,56.53
2023-01-08T06:02:47.711Z,57.47
2023-01-08T06:05:28.588Z,57.20
2023-01-08T06:07:55.606Z,56.84
2023-01-08T06:10:47.875Z,57.01
2023-01-08T06:13:22.387Z,56.59
2023-01-08T06:15:49.540Z,56.20
2023-01-08T06:18:16.739Z,56.51
2023-01-08T06:20:43.791Z,56.27
2023-01-08T06:23:11.866Z,55.86
2023-01-08T06:25:38.907Z,55.63
2023-01-08T06:28:24.078Z,56.01
2023-01-08T06:31:00.552Z,55.49
2023-01-08T06:33:27.807Z,55.62
2023-01-08T06:36:08.260Z,55.89
2023-01-08T06:38:43.867Z,55.75
2023-01-08T06:41:19.333Z,55.61
2023-01-08T06:43:49.685Z,55.76
2023-01-08T06:46:16.685Z,55.76
2023-01-08T06:48:45.621Z,55.21
2023-01-08T06:51:12.595Z,55.60
2023-01-08T06:56:28.647Z,55.18
2023-01-08T06:58:56.848Z,56.15
2023-01-08T07:01:24.384Z,56.00
2023-01-08T07:03:51.391Z,55.99
2023-01-08T07:06:22.684Z,56.61
2023-01-08T07:08:50.186Z,56.60
2023-01-08T07:11:17.923Z,56.75
2023-01-08T07:13:44.833Z,56.31
2023-01-08T07:16:14.295Z,56.53
2023-01-08T07:18:43.044Z,57.21
2023-01-08T07:21:28.485Z,56.75
2023-01-08T07:23:59.705Z,57.54
2023-01-08T07:26:27.817Z,56.92
2023-01-08T07:28:54.924Z,56.75
2023-01-08T07:31:22.214Z,57.30
2023-01-08T07:33:49.392Z,57.87
2023-01-08T07:36:16.764Z,56.81
2023-01-08T07:38:43.685Z,57.47
2023-01-08T07:41:13.506Z,57.35
2023-01-08T07:43:40.528Z,56.94
2023-01-08T07:46:07.752Z,56.84
2023-01-08T07:48:34.923Z,56.82
2023-01-08T07:51:07.588Z,57.34
2023-01-08T07:53:36.178Z,56.72
2023-01-08T07:56:06.003Z,56.81
2023-01-08T07:58:33.106Z,56.59
2023-01-08T08:01:00.933Z,56.19
2023-01-08T08:03:28.247Z,56.01
2023-01-08T08:06:20.696Z,56.09
2023-01-08T08:08:48.005Z,55.63
2023-01-08T08:11:25.204Z,55.45
2023-01-08T08:13:53.807Z,54.96
2023-01-08T08:16:21.721Z,54.91
2023-01-08T08:18:48.659Z,54.29
2023-01-08T08:21:15.532Z,53.65
2023-01-08T08:23:42.932Z,52.96
2023-01-08T08:26:10.012Z,52.41
2023-01-08T08:28:36.964Z,52.16
2023-01-08T08:31:03.943Z,51.97
2023-01-08T08:33:31.208Z,52.14
2023-01-08T08:35:58.582Z,52.27
2023-01-08T08:38:26.667Z,52.82
2023-01-08T08:40:53.869Z,52.48
2023-01-08T08:43:20.842Z,52.77
2023-01-08T08:45:47.927Z,53.03
2023-01-08T08:48:16.837Z,52.78
2023-01-08T08:50:43.808Z,53.33
2023-01-08T08:53:10.856Z,53.39
2023-01-08T08:55:37.859Z,53.29
2023-01-08T08:58:13.924Z,53.45
2023-01-08T09:00:43.205Z,53.38
2023-01-08T09:03:15.586Z,53.18
2023-01-08T09:05:45.631Z,53.17
2023-01-08T09:08:31.696Z,53.58
2023-01-08T09:11:17.376Z,53.55
2023-01-08T09:16:29.325Z,53.30
2023-01-08T09:18:56.644Z,53.06
2023-01-08T09:21:23.664Z,52.55
2023-01-08T09:23:50.841Z,52.37
2023-01-08T09:26:17.847Z,51.95
2023-01-08T09:28:44.891Z,52.08
2023-01-08T09:31:11.902Z,52.00
2023-01-08T09:33:39.017Z,52.18
2023-01-08T09:36:11.100Z,52.08
2023-01-08T09:38:38.056Z,52.07
2023-01-08T09:41:12.967Z,52.09
2023-01-08T09:43:59.553Z,51.68
2023-01-08T09:46:46.930Z,51.66
2023-01-08T09:49:21.870Z,51.60
2023-01-08T09:51:49.056Z,51.26
2023-01-08T09:54:17.766Z,50.33
2023-01-08T09:56:45.032Z,49.52
2023-01-08T09:59:16.818Z,48.82
2023-01-08T10:01:45.994Z,48.33
2023-01-08T10:04:24.221Z,47.40
2023-01-08T10:07:24.767Z,46.03
2023-01-08T10:09:53.092Z,45.88
2023-01-08T10:12:32.281Z,44.96
2023-01-08T10:15:02.930Z,44.41
2023-01-08T10:17:48.413Z,43.80
2023-01-08T10:20:41.434Z,43.94
2023-01-08T10:23:17.637Z,43.96
2023-01-08T10:26:02.548Z,40.71
2023-01-08T10:28:31.087Z,39.31
2023-01-08T10:31:11.468Z,38.97
2023-01-08T10:33:43.778Z,39.67
2023-01-08T10:36:19.335Z,40.19
2023-01-08T10:39:01.027Z,40.11
2023-01-08T10:41:28.807Z,40.66
2023-01-08T10:47:38.422Z,41.02
2023-01-08T10:50:38.046Z,40.53
2023-01-08T10:53:18.351Z,40.46
2023-01-08T10:55:45.356Z,41.03
2023-01-08T10:58:15.463Z,40.38
2023-01-08T11:00:42.731Z,41.35
2023-01-08T11:03:30.071Z,41.88
2023-01-08T11:05:57.503Z,42.84
2023-01-08T11:08:25.015Z,44.14
2023-01-08T11:11:00.129Z,44.96
2023-01-08T11:13:28.694Z,45.54
2023-01-08T11:16:07.125Z,45.64
2023-01-08T11:18:46.904Z,46.13
2023-01-08T11:21:25.934Z,46.14
2023-01-08T11:24:02.372Z,46.14
2023-01-08T11:26:29.699Z,46.14
2023-01-08T11:29:06.389Z,46.47
2023-01-08T11:32:07.180Z,46.46
2023-01-08T11:35:03.618Z,46.19
2023-01-08T11:37:40.749Z,46.37
2023-01-08T11:43:11.201Z,46.53
2023-01-08T11:46:16.684Z,46.51
2023-01-08T11:49:01.272Z,46.79
2023-01-08T11:51:58.534Z,46.64
2023-01-08T11:54:44.129Z,46.39
2023-01-08T11:57:24.686Z,46.48
2023-01-08T12:00:16.551Z,46.30
2023-01-08T12:02:53.303Z,46.52
2023-01-08T12:05:45.208Z,46.84
2023-01-08T12:08:41.690Z,47.61
2023-01-08T12:11:27.765Z,48.11
2023-01-08T12:14:17.555Z,48.87
2023-01-08T12:17:04.388Z,49.18
2023-01-08T12:19:52.221Z,49.93
2023-01-08T12:22:56.684Z,50.61
2023-01-08T12:25:47.867Z,50.98
2023-01-08T12:28:33.473Z,51.08
2023-01-08T12:31:00.820Z,48.72
2023-01-08T12:33:33.633Z,49.45
2023-01-08T12:36:06.246Z,49.45
2023-01-08T12:38:38.239Z,50.35
2023-01-08T12:41:21.854Z,50.20
2023-01-08T12:44:11.576Z,50.43
2023-01-08T12:47:02.949Z,50.67
2023-01-08T12:49:51.568Z,51.67
2023-01-08T12:52:45.251Z,52.09
2023-01-08T12:55:33.887Z,51.90
2023-01-08T12:58:11.714Z,51.68
2023-01-08T13:01:11.040Z,52.78
2023-01-08T13:03:49.211Z,53.91
2023-01-08T13:06:20.751Z,54.66
2023-01-08T13:08:51.592Z,55.15
2023-01-08T13:11:33.658Z,54.86
2023-01-08T13:14:10.699Z,55.51
2023-01-08T13:17:00.406Z,55.70
2023-01-08T13:19:47.065Z,56.45
2023-01-08T13:22:33.083Z,56.67
2023-01-08T13:28:00.725Z,56.39
2023-01-08T13:30:35.736Z,57.39
2023-01-08T13:33:03.031Z,56.94
2023-01-08T13:35:31.669Z,58.13
2023-01-08T13:38:11.209Z,57.88
2023-01-08T13:40:44.552Z,57.27
2023-01-08T13:43:36.102Z,57.19
2023-01-08T13:46:03.221Z,56.20
2023-01-08T13:49:01.677Z,57.18
2023-01-08T13:51:42.936Z,56.33
2023-01-08T13:54:12.876Z,57.32
2023-01-08T13:56:45.648Z,57.47
2023-01-08T13:59:41.098Z,57.23
2023-01-08T14:02:28.849Z,57.74
2023-01-08T14:04:57.382Z,58.01
2023-01-08T14:07:31.120Z,57.98
2023-01-08T14:10:37.621Z,57.71
2023-01-08T14:13:08.766Z,58.53
2023-01-08T14:15:38.623Z,58.61
2023-01-08T14:18:06.655Z,58.37
2023-01-08T14:20:36.973Z,58.71
2023-01-08T14:23:38.201Z,58.62
2023-01-08T14:26:10.713Z,58.17
2023-01-08T14:31:27.532Z,57.33
2023-01-08T14:34:16.154Z,56.93
2023-01-08T14:37:02.527Z,56.40
2023-01-08T14:39:35.310Z,56.55
2023-01-08T14:42:28.682Z,56.51
2023-01-08T14:44:58.612Z,56.95
2023-01-08T14:47:30.828Z,56.28
2023-01-08T14:49:58.615Z,56.57
2023-01-08T14:52:26.812Z,56.27
2023-01-08T14:54:56.529Z,56.46
2023-01-08T14:57:24.351Z,56.45
2023-01-08T14:59:57.852Z,56.77
2023-01-08T15:02:39.409Z,56.30
2023-01-08T15:05:32.138Z,56.59
2023-01-08T15:08:22.865Z,56.36
2023-01-08T15:11:18.948Z,57.01
2023-01-08T15:13:48.501Z,55.89
2023-01-08T15:16:30.061Z,55.76
2023-01-08T15:19:07.649Z,55.89
2023-01-08T15:21:35.403Z,55.72
2023-01-08T15:24:05.876Z,56.17
2023-01-08T15:26:33.859Z,56.74
2023-01-08T15:29:24.348Z,55.91
2023-01-08T15:31:51.487Z,56.11
2023-01-08T15:34:21.732Z,56.37
2023-01-08T15:36:51.804Z,56.75
2023-01-08T15:39:27.424Z,56.43
2023-01-08T15:42:13.839Z,56.98
2023-01-08T15:44:41.213Z,56.82
2023-01-08T15:47:11.873Z,57.74
2023-01-08T15:49:38.800Z,57.57
2023-01-08T15:52:05.881Z,57.52
2023-01-08T15:54:32.791Z,57.61
2023-01-08T15:57:00.888Z,57.30
2023-01-08T15:59:31.680Z,57.38
2023-01-08T16:01:58.887Z,57.09
2023-01-08T16:04:25.841Z,57.38
2023-01-08T16:06:52.867Z,58.03
2023-01-08T16:12:29.156Z,57.60
2023-01-08T16:15:15.080Z,57.20
2023-01-08T16:17:43.359Z,57.87
2023-01-08T16:20:11.696Z,58.08
2023-01-08T16:22:38.814Z,58.03
2023-01-08T16:29:15.070Z,59.14
2023-01-08T16:31:50.278Z,59.61
2023-01-08T16:34:21.233Z,59.41
2023-01-08T16:36:49.520Z,59.75
2023-01-08T16:39:18.065Z,59.35
2023-01-08T16:41:47.562Z,59.77
2023-01-08T16:44:21.399Z,60.33
2023-01-08T16:46:52.059Z,61.07
2023-01-08T16:49:19.251Z,60.10
2023-01-08T16:51:46.499Z,61.02
2023-01-08T16:54:15.357Z,61.01
2023-01-08T16:56:42.947Z,61.42
2023-01-08T16:59:22.376Z,61.40
2023-01-08T17:01:51.993Z,61.94
2023-01-08T17:04:29.707Z,61.59
2023-01-08T17:07:00.349Z,61.03
2023-01-08T17:09:35.044Z,61.50
2023-01-08T17:12:23.575Z,62.11
2023-01-08T17:14:53.461Z,61.46
2023-01-08T17:17:29.263Z,62.04
2023-01-08T17:19:56.729Z,61.24
2023-01-08T17:22:26.632Z,62.04
2023-01-08T17:24:53.549Z,61.70
2023-01-08T17:27:22.516Z,61.55
2023-01-08T17:29:49.884Z,61.40
2023-01-08T17:32:16.861Z,61.89
2023-01-08T17:34:44.121Z,61.32
2023-01-08T17:37:13.577Z,61.37
2023-01-08T17:39:40.629Z,61.34
2023-01-08T17:42:30.968Z,61.16
2023-01-08T17:45:03.055Z,61.62
2023-01-08T17:47:31.011Z,62.61
2023-01-08T17:49:58.240Z,61.42
2023-01-08T17:52:26.522Z,61.49
2023-01-08T17:54:54.415Z,61.68
2023-01-08T17:57:22.446Z,62.60
2023-01-08T18:00:00.048Z,62.72
2023-01-08T18:02:28.016Z,63.38
2023-01-08T18:04:55.170Z,62.73
2023-01-08T18:07:24.309Z,62.82
2023-01-08T18:10:04.310Z,63.07
2023-01-08T18:12:36.654Z,62.70
2023-01-08T18:15:33.203Z,63.90
2023-01-08T18:18:02.420Z,62.52
2023-01-08T18:20:39.430Z,63.74
2023-01-08T18:23:06.485Z,62.20
2023-01-08T18:25:35.425Z,63.29
2023-01-08T18:28:04.188Z,63.16
2023-01-08T18:30:46.012Z,63.43
2023-01-08T18:33:52.214Z,63.55
2023-01-08T18:36:22.824Z,63.50
2023-01-08T18:38:50.073Z,63.87
2023-01-08T18:41:37.715Z,63.43
2023-01-08T18:44:11.381Z,63.59
2023-01-08T18:53:50.476Z,64.46
2023-01-08T18:56:28.227Z,64.58
2023-01-08T18:58:56.230Z,64.56
2023-01-08T19:01:24.015Z,64.75
2023-01-08T19:03:55.903Z,64.91
2023-01-08T19:06:24.153Z,64.72
2023-01-08T19:08:56.237Z,64.99
2023-01-08T19:12:11.984Z,64.53
2023-01-08T19:14:39.284Z,64.13
2023-01-08T19:17:06.476Z,64.12
2023-01-08T19:19:33.485Z,64.51
2023-01-08T19:22:01.122Z,63.74
2023-01-08T19:24:31.466Z,64.63
2023-01-08T19:26:58.391Z,64.06
2023-01-08T19:29:32.418Z,64.73
2023-01-08T19:31:59.516Z,64.66
2023-01-08T19:34:26.494Z,65.41
2023-01-08T19:37:01.269Z,64.15
2023-01-08T19:39:41.779Z,64.86
2023-01-08T19:42:34.946Z,64.75
2023-01-08T19:45:41.717Z,64.26
2023-01-08T19:48:09.095Z,64.08
2023-01-08T19:50:39.852Z,64.54
2023-01-08T19:53:15.148Z,64.92
2023-01-08T19:55:42.367Z,64.94
2023-01-08T19:58:09.407Z,64.60
2023-01-08T20:00:39.277Z,64.38
2023-01-08T20:03:12.370Z,64.75
2023-01-08T20:05:45.491Z,65.26
2023-01-08T20:12:20.276Z,64.76
2023-01-08T20:15:57.317Z,63.94
2023-01-08T20:22:40.677Z,64.51
2023-01-08T20:29:04.849Z,64.86
2023-01-08T20:31:34.633Z,64.48
2023-01-08T20:43:29.275Z,64.18
2023-01-08T20:45:56.530Z,64.29
2023-01-08T20:52:16.406Z,63.36
2023-01-08T20:55:06.078Z,63.39
2023-01-08T20:58:33.361Z,63.94
2023-01-08T21:06:24.281Z,63.84
2023-01-08T21:08:58.957Z,63.97
2023-01-08T21:11:27.182Z,65.27
2023-01-08T21:13:55.994Z,65.01
2023-01-08T21:16:45.673Z,64.66
2023-01-08T21:19:15.187Z,65.30
2023-01-08T21:21:42.208Z,64.56
2023-01-08T21:24:12.878Z,64.67
2023-01-08T21:27:01.801Z,64.79
2023-01-08T21:29:29.448Z,63.99
2023-01-08T21:31:57.211Z,64.21
2023-01-08T21:34:24.176Z,64.32
2023-01-08T21:37:09.638Z,64.24
2023-01-08T21:39:38.999Z,64.16
2023-01-08T21:42:24.503Z,64.15
2023-01-08T21:45:10.086Z,64.13
2023-01-08T21:47:37.065Z,64.59
2023-01-08T21:50:04.136Z,64.48
2023-01-08T21:53:08.524Z,64.61
2023-01-08T21:55:35.494Z,64.38
2023-01-08T21:58:20.936Z,64.63
2023-01-08T22:00:47.846Z,65.30
2023-01-08T22:03:14.813Z,64.61
2023-01-08T22:06:03.127Z,64.97
2023-01-08T22:08:31.382Z,64.42
2023-01-08T22:11:00.521Z,64.41
2023-01-08T22:13:28.103Z,64.79
2023-01-08T22:16:07.858Z,64.99
2023-01-08T22:18:35.784Z,64.93
2023-01-08T22:23:57.203Z,65.21
2023-01-08T22:26:30.704Z,64.58
2023-01-08T22:28:59.896Z,65.41
2023-01-08T22:31:35.605Z,65.24
2023-01-08T22:34:05.612Z,65.01
2023-01-08T22:36:32.568Z,65.32
2023-01-08T22:38:59.642Z,64.90
2023-01-08T22:41:26.622Z,64.87
2023-01-08T22:43:56.992Z,65.44
2023-01-08T22:46:24.728Z,65.11
2023-01-08T22:49:01.522Z,64.96
2023-01-08T22:51:28.792Z,64.59
2023-01-08T22:54:03.726Z,64.25
2023-01-08T22:56:30.944Z,64.84
2023-01-08T22:58:58.231Z,64.52
2023-01-08T23:01:29.469Z,64.39
2023-01-08T23:04:00.156Z,64.87
2023-01-08T23:06:29.545Z,64.80
2023-01-08T23:08:58.369Z,64.43
2023-01-08T23:11:27.940Z,65.19
2023-01-08T23:14:20.055Z,65.34
2023-01-08T23:16:47.148Z,66.16
2023-01-08T23:19:15.180Z,65.58
2023-01-08T23:21:45.947Z,65.58
2023-01-08T23:24:13.909Z,65.90
2023-01-08T23:26:41.932Z,66.15
2023-01-08T23:29:09.610Z,65.59
2023-01-08T23:31:41.280Z,65.81
2023-01-08T23:34:08.430Z,66.86
2023-01-08T23:36:35.979Z,65.82
2023-01-08T23:39:04.901Z,66.40
2023-01-08T23:41:34.573Z,66.03
2023-01-08T23:44:07.413Z,66.60
2023-01-08T23:46:35.422Z,66.38
2023-01-08T23:49:02.393Z,67.15
2023-01-08T23:51:33.454Z,66.76
2023-01-08T23:54:00.507Z,65.98
2023-01-08T23:56:27.507Z,65.85
2023-01-08T23:58:57.847Z,67.05
